Time;durP1;ratioP1;P1;durP2;ratioP2;P2;SDS_P1;SDS_P2;PMS_P1;PMS_P2;Temp;Humidity;BMP_temperature;BMP_pressure;BME280_temperature;BME280_humidity;BME280_pressure;Samples;Min_cycle;Max_cycle;Signal;HPM_P1;HPM_P2
2021/03/05 00:00:36;;;;;;;8.40;6.87;;;6.50;99.90;;;;;;4992487;28;20504;-89
2021/03/05 00:03:03;;;;;;;13.87;7.80;;;6.50;99.90;;;;;;4991485;28;20454;-88
2021/03/05 00:05:30;;;;;;;11.43;8.67;;;6.50;99.90;;;;;;4993386;28;20468;-87
2021/03/05 00:07:56;;;;;;;9.37;8.00;;;6.50;99.90;;;;;;4995681;28;20448;-88
2021/03/05 00:10:26;;;;;;;11.27;9.60;;;6.60;99.90;;;;;;4991629;28;20944;-89
2021/03/05 00:12:53;;;;;;;10.60;7.97;;;6.60;99.90;;;;;;4992648;28;20453;-88
2021/03/05 00:15:23;;;;;;;11.33;9.57;;;6.70;99.90;;;;;;4995002;28;20849;-89
2021/03/05 00:17:50;;;;;;;10.33;7.90;;;6.70;99.90;;;;;;4991338;28;20460;-88
2021/03/05 00:20:18;;;;;;;17.03;13.00;;;6.70;99.90;;;;;;4995562;28;20457;-88
2021/03/05 00:22:45;;;;;;;19.53;15.13;;;6.50;99.90;;;;;;4995281;28;20941;-90
2021/03/05 00:25:12;;;;;;;18.23;15.20;;;6.30;99.90;;;;;;4995426;28;20496;-89
2021/03/05 00:27:38;;;;;;;17.60;15.03;;;6.10;99.90;;;;;;4995467;28;20453;-90
2021/03/05 00:30:07;;;;;;;24.33;16.67;;;6.00;99.90;;;;;;4998461;28;20457;-89
2021/03/05 00:32:34;;;;;;;18.10;14.70;;;5.90;99.90;;;;;;4944747;28;20452;-87
2021/03/05 00:35:00;;;;;;;19.80;15.93;;;5.90;99.90;;;;;;5004986;28;20929;-87
2021/03/05 00:37:27;;;;;;;24.63;19.97;;;5.80;99.90;;;;;;4996393;28;20477;-89
2021/03/05 00:39:54;;;;;;;23.70;18.33;;;5.60;99.90;;;;;;4990945;28;20453;-89
2021/03/05 00:42:20;;;;;;;29.43;20.17;;;5.50;99.90;;;;;;4990681;28;20942;-89
2021/03/05 00:44:46;;;;;;;26.27;19.17;;;5.40;99.90;;;;;;4995042;28;20835;-88
2021/03/05 00:47:13;;;;;;;28.97;20.63;;;5.40;99.90;;;;;;4994857;28;21008;-89
2021/03/05 00:49:39;;;;;;;24.67;17.87;;;5.30;99.90;;;;;;4988498;28;20804;-91
2021/03/05 00:52:06;;;;;;;24.73;19.57;;;5.20;99.90;;;;;;4992025;28;20798;-91
2021/03/05 00:54:32;;;;;;;25.10;18.00;;;5.10;99.90;;;;;;4994972;28;20484;-88
2021/03/05 00:56:59;;;;;;;27.10;20.47;;;5.10;99.90;;;;;;4991605;28;20492;-88
2021/03/05 00:59:27;;;;;;;24.97;18.10;;;5.00;99.90;;;;;;4994657;28;20590;-88
2021/03/05 01:01:54;;;;;;;26.50;17.93;;;4.90;99.90;;;;;;4994509;28;20446;-87
2021/03/05 01:04:20;;;;;;;24.80;17.67;;;4.80;99.90;;;;;;4990888;28;20464;-89
2021/03/05 01:06:47;;;;;;;24.03;15.87;;;4.70;99.90;;;;;;4989212;28;20476;-88
2021/03/05 01:09:13;;;;;;;27.27;17.63;;;4.60;99.90;;;;;;4995216;28;20457;-90
2021/03/05 01:11:40;;;;;;;24.33;17.00;;;4.60;99.90;;;;;;4994765;28;20453;-91
2021/03/05 01:14:07;;;;;;;19.60;13.23;;;4.50;99.90;;;;;;4994984;28;20448;-89
2021/03/05 01:16:33;;;;;;;25.40;18.20;;;4.40;99.90;;;;;;4991402;28;20500;-88
2021/03/05 01:19:00;;;;;;;21.97;12.73;;;4.20;99.90;;;;;;4989588;28;20446;-87
2021/03/05 01:21:26;;;;;;;29.33;18.93;;;4.10;99.90;;;;;;4991363;28;20890;-88
2021/03/05 01:23:53;;;;;;;32.70;18.93;;;4.00;99.90;;;;;;4994450;28;20461;-89
2021/03/05 01:26:19;;;;;;;37.10;20.80;;;4.00;99.90;;;;;;4990818;28;20457;-88
2021/03/05 01:28:46;;;;;;;30.13;18.80;;;4.00;99.90;;;;;;4991539;28;20445;-89
2021/03/05 01:31:14;;;;;;;31.37;19.83;;;4.00;99.90;;;;;;4991345;28;20509;-88
2021/03/05 01:33:41;;;;;;;39.60;21.80;;;3.90;99.90;;;;;;4993199;28;20449;-89
2021/03/05 01:36:09;;;;;;;40.77;22.37;;;3.80;99.90;;;;;;4993913;28;20615;-90
2021/03/05 01:38:39;;;;;;;36.57;18.70;;;3.90;99.90;;;;;;4994301;28;20464;-89
2021/03/05 01:41:05;;;;;;;43.00;21.07;;;4.00;99.90;;;;;;4994141;28;20461;-88
2021/03/05 01:43:40;;;;;;;33.00;19.50;;;3.90;99.90;;;;;;4991211;28;20516;-90
2021/03/05 01:46:07;;;;;;;40.37;20.40;;;4.00;99.90;;;;;;5007541;28;20451;-88
2021/03/05 01:48:36;;;;;;;34.10;18.30;;;3.90;99.90;;;;;;5014660;28;20453;-86
2021/03/05 01:51:09;;;;;;;30.90;16.80;;;3.90;99.90;;;;;;4997135;28;20454;-89
2021/03/05 01:53:35;;;;;;;29.53;18.87;;;3.90;99.90;;;;;;4990772;28;20454;-88
2021/03/05 01:56:03;;;;;;;32.77;18.33;;;3.80;99.90;;;;;;4993737;28;20505;-88
2021/03/05 01:58:29;;;;;;;25.47;14.83;;;3.80;99.90;;;;;;4990478;28;20496;-88
2021/03/05 02:00:59;;;;;;;32.37;18.87;;;3.70;99.90;;;;;;4990987;28;20485;-87
2021/03/05 02:03:25;;;;;;;27.07;16.83;;;3.70;99.90;;;;;;5000832;28;20449;-87
2021/03/05 02:05:53;;;;;;;21.50;12.37;;;3.60;99.90;;;;;;4995333;28;20445;-88
2021/03/05 02:08:19;;;;;;;28.57;16.40;;;3.60;99.90;;;;;;4993582;28;20445;-88
2021/03/05 02:10:45;;;;;;;27.47;16.90;;;3.50;99.90;;;;;;4990488;28;20926;-88
2021/03/05 02:13:14;;;;;;;31.67;17.30;;;3.50;99.90;;;;;;4993472;28;20932;-88
2021/03/05 02:15:41;;;;;;;31.93;18.47;;;3.50;99.90;;;;;;4993356;28;20498;-88
2021/03/05 02:18:14;;;;;;;32.67;17.17;;;3.50;99.90;;;;;;4992567;28;20503;-88
2021/03/05 02:20:54;;;;;;;25.23;13.20;;;3.50;99.90;;;;;;4993460;28;20453;-88
2021/03/05 02:23:37;;;;;;;39.20;21.00;;;3.50;99.90;;;;;;4989155;28;20461;-88
2021/03/05 02:26:54;;;;;;;36.93;21.47;;;3.50;99.90;;;;;;4990437;28;20472;-88
2021/03/05 02:29:44;;;;;;;38.33;21.70;;;3.50;99.90;;;;;;4993490;28;20468;-89
2021/03/05 02:32:17;;;;;;;39.00;21.70;;;3.50;99.90;;;;;;4992432;28;20516;-87
2021/03/05 02:34:47;;;;;;;35.53;20.80;;;3.50;99.90;;;;;;4985623;28;20542;-87
2021/03/05 02:37:16;;;;;;;38.90;22.47;;;3.50;99.90;;;;;;4993371;28;20910;-88
2021/03/05 02:39:45;;;;;;;45.60;24.00;;;3.60;99.90;;;;;;4997164;28;20460;-87
2021/03/05 02:42:19;;;;;;;27.83;14.17;;;3.40;99.90;;;;;;4997031;28;20441;-88
2021/03/05 02:44:51;;;;;;;38.50;21.93;;;3.40;99.90;;;;;;4997043;28;20458;-90
2021/03/05 02:47:21;;;;;;;41.33;22.37;;;3.30;99.90;;;;;;4997597;28;20457;-89
2021/03/05 02:49:51;;;;;;;38.23;20.53;;;3.40;99.90;;;;;;4998337;28;20523;-90
2021/03/05 02:52:20;;;;;;;38.90;20.20;;;3.20;99.90;;;;;;4996980;28;20508;-89
2021/03/05 02:54:52;;;;;;;34.57;18.90;;;3.30;99.90;;;;;;4993905;28;20480;-90
2021/03/05 02:57:20;;;;;;;36.40;21.10;;;3.30;99.90;;;;;;4996694;28;20497;-89
2021/03/05 02:59:47;;;;;;;30.83;19.27;;;3.30;99.90;;;;;;4994044;28;20468;-88
2021/03/05 03:02:15;;;;;;;39.40;21.60;;;3.20;99.90;;;;;;4996116;28;20460;-88
2021/03/05 03:04:43;;;;;;;42.23;23.43;;;3.20;99.90;;;;;;4996982;28;20457;-88
2021/03/05 03:07:11;;;;;;;31.40;18.80;;;3.20;99.90;;;;;;4988692;28;20472;-89
2021/03/05 03:09:40;;;;;;;23.63;13.07;;;3.30;99.90;;;;;;4992885;28;20556;-88
2021/03/05 03:12:08;;;;;;;25.27;13.40;;;3.20;99.90;;;;;;4996515;28;20453;-88
2021/03/05 03:14:36;;;;;;;33.33;18.73;;;3.10;99.90;;;;;;4996925;28;20461;-89
2021/03/05 03:17:04;;;;;;;33.30;19.37;;;3.10;99.90;;;;;;4992473;28;20463;-89
2021/03/05 03:19:31;;;;;;;30.17;18.40;;;3.10;99.90;;;;;;4991774;28;20491;-89
2021/03/05 03:21:59;;;;;;;36.23;20.83;;;3.10;99.90;;;;;;4996523;28;20468;-88
2021/03/05 03:24:26;;;;;;;36.17;18.73;;;3.20;99.90;;;;;;4996455;28;20515;-88
2021/03/05 03:26:52;;;;;;;38.90;22.63;;;3.20;99.90;;;;;;4991408;28;20449;-89
2021/03/05 03:29:18;;;;;;;31.60;18.13;;;3.10;99.90;;;;;;4992735;28;20464;-87
2021/03/05 03:31:45;;;;;;;39.67;21.70;;;3.20;99.90;;;;;;5000132;28;20453;-86
2021/03/05 03:34:12;;;;;;;38.97;20.70;;;3.20;99.90;;;;;;5001973;28;20465;-88
2021/03/05 03:36:41;;;;;;;29.30;17.97;;;3.10;99.90;;;;;;4990639;28;20856;-89
2021/03/05 03:39:10;;;;;;;39.73;19.10;;;3.00;99.90;;;;;;4996289;28;20484;-88
2021/03/05 03:41:38;;;;;;;34.57;20.80;;;3.10;99.90;;;;;;4996408;28;20500;-90
2021/03/05 03:44:05;;;;;;;33.70;19.70;;;3.10;99.90;;;;;;4996372;28;20452;-90
2021/03/05 03:46:32;;;;;;;31.07;18.37;;;3.00;99.90;;;;;;4996265;28;20449;-90
2021/03/05 03:49:02;;;;;;;27.07;16.50;;;3.10;99.90;;;;;;4994741;28;20484;-89
2021/03/05 03:51:31;;;;;;;33.53;17.73;;;3.10;99.90;;;;;;4993173;28;20525;-88
2021/03/05 03:53:59;;;;;;;39.80;20.80;;;3.10;99.90;;;;;;4991567;28;20457;-87
2021/03/05 03:56:30;;;;;;;29.20;15.73;;;3.10;99.90;;;;;;4995667;28;20992;-90
2021/03/05 03:58:58;;;;;;;30.03;18.20;;;3.10;99.90;;;;;;4992796;28;20468;-87
2021/03/05 04:01:25;;;;;;;29.30;19.23;;;3.00;99.90;;;;;;4995575;28;20510;-88
2021/03/05 04:03:53;;;;;;;25.17;15.83;;;3.00;99.90;;;;;;4990681;28;20453;-88
2021/03/05 04:06:23;;;;;;;23.10;16.93;;;3.00;99.90;;;;;;4995777;28;20448;-89
2021/03/05 04:08:51;;;;;;;26.53;16.30;;;3.20;99.90;;;;;;4995492;28;20445;-89
2021/03/05 04:11:19;;;;;;;22.87;14.77;;;3.00;99.90;;;;;;4995393;28;20508;-89
2021/03/05 04:13:47;;;;;;;23.90;14.80;;;3.00;99.90;;;;;;4991413;28;20448;-88
2021/03/05 04:16:13;;;;;;;23.70;15.13;;;3.00;99.90;;;;;;4995171;28;20493;-88
2021/03/05 04:18:41;;;;;;;23.00;15.80;;;3.00;99.90;;;;;;4990183;28;20772;-89
2021/03/05 04:21:14;;;;;;;25.30;15.70;;;2.90;99.90;;;;;;4992057;28;20461;-89
2021/03/05 04:23:41;;;;;;;27.93;17.23;;;3.00;99.90;;;;;;4995174;28;20523;-88
2021/03/05 04:26:07;;;;;;;29.83;15.73;;;2.90;99.90;;;;;;4992043;28;20811;-88
2021/03/05 04:28:33;;;;;;;21.70;14.00;;;2.90;99.90;;;;;;4994982;28;20960;-87
2021/03/05 04:31:01;;;;;;;25.47;14.53;;;2.90;99.90;;;;;;4994847;28;20453;-88
2021/03/05 04:33:27;;;;;;;21.77;14.00;;;2.90;99.90;;;;;;4993694;28;20485;-88
2021/03/05 04:35:53;;;;;;;21.93;13.63;;;2.80;99.90;;;;;;4994667;28;20534;-88
2021/03/05 04:38:20;;;;;;;19.77;11.37;;;2.80;99.90;;;;;;4953678;29;20515;-88
2021/03/05 04:40:46;;;;;;;23.10;14.00;;;2.70;99.90;;;;;;4953667;29;20454;-89
2021/03/05 04:43:13;;;;;;;22.80;14.10;;;2.70;99.90;;;;;;4949284;29;20459;-87
2021/03/05 04:45:40;;;;;;;17.67;12.27;;;2.70;99.90;;;;;;4949865;29;20455;-89
2021/03/05 04:48:09;;;;;;;19.20;13.60;;;2.70;99.90;;;;;;4952556;29;20587;-87
2021/03/05 04:50:36;;;;;;;19.60;14.20;;;2.70;99.90;;;;;;4953651;29;20451;-88
2021/03/05 04:53:02;;;;;;;18.57;12.23;;;2.60;99.90;;;;;;4953575;29;20829;-88
2021/03/05 04:55:28;;;;;;;16.17;12.13;;;2.60;99.90;;;;;;4957342;28;20498;-87
2021/03/05 04:57:55;;;;;;;22.80;12.30;;;2.60;99.90;;;;;;4991275;28;20969;-88
2021/03/05 05:00:21;;;;;;;21.63;14.00;;;2.60;99.90;;;;;;4994210;28;20460;-87
2021/03/05 05:02:48;;;;;;;23.60;14.70;;;2.60;99.90;;;;;;4987022;28;20449;-87
2021/03/05 05:05:16;;;;;;;16.80;11.63;;;2.70;99.90;;;;;;4994360;28;20453;-88
2021/03/05 05:07:42;;;;;;;21.10;13.37;;;2.70;99.90;;;;;;4994265;28;20457;-87
2021/03/05 05:10:10;;;;;;;23.93;14.17;;;2.80;99.90;;;;;;4994453;28;20515;-88
2021/03/05 05:12:37;;;;;;;22.63;14.20;;;2.90;99.90;;;;;;4994233;28;20454;-88
2021/03/05 05:15:05;;;;;;;19.37;12.87;;;2.90;99.90;;;;;;4994144;28;20485;-88
2021/03/05 05:17:32;;;;;;;21.10;14.10;;;2.90;99.90;;;;;;4993011;28;20511;-87
2021/03/05 05:19:58;;;;;;;22.13;14.93;;;2.90;99.90;;;;;;4994228;28;20964;-88
2021/03/05 05:22:25;;;;;;;22.10;13.43;;;2.90;99.90;;;;;;4994045;28;20449;-89
2021/03/05 05:24:52;;;;;;;21.83;14.10;;;2.80;99.90;;;;;;4990140;28;20986;-87
2021/03/05 05:27:18;;;;;;;19.40;11.90;;;2.90;99.90;;;;;;4986224;28;20488;-87
2021/03/05 05:29:45;;;;;;;21.57;12.57;;;2.90;99.90;;;;;;4993928;28;20461;-87
2021/03/05 05:32:11;;;;;;;22.50;13.67;;;2.90;99.90;;;;;;4992669;28;20484;-88
2021/03/05 05:34:37;;;;;;;20.40;12.73;;;2.80;99.90;;;;;;4993768;28;20951;-88
2021/03/05 05:37:03;;;;;;;18.47;11.93;;;2.90;99.90;;;;;;4993783;28;20840;-88
2021/03/05 05:39:30;;;;;;;21.70;14.17;;;2.90;99.90;;;;;;4993785;28;20461;-88
2021/03/05 05:41:58;;;;;;;19.63;13.20;;;2.90;99.90;;;;;;4993766;28;20456;-87
2021/03/05 05:44:24;;;;;;;18.00;11.83;;;2.90;99.90;;;;;;4989810;28;20445;-87
2021/03/05 05:46:51;;;;;;;19.67;12.00;;;2.90;99.90;;;;;;4993694;28;20457;-88
2021/03/05 05:49:19;;;;;;;15.07;10.73;;;2.90;99.90;;;;;;4989480;28;20900;-89
2021/03/05 05:51:46;;;;;;;19.60;12.10;;;2.90;99.90;;;;;;4990562;28;20937;-88
2021/03/05 05:54:21;;;;;;;19.33;11.27;;;2.90;99.90;;;;;;4993476;28;20459;-87
2021/03/05 05:56:48;;;;;;;18.37;11.90;;;2.80;99.90;;;;;;4993216;28;20504;-88
2021/03/05 05:59:14;;;;;;;16.10;10.73;;;2.90;99.90;;;;;;4993309;28;20515;-89
2021/03/05 06:01:42;;;;;;;17.77;11.27;;;2.80;99.90;;;;;;4990396;28;20442;-89
2021/03/05 06:04:08;;;;;;;15.63;10.67;;;2.80;99.90;;;;;;4992248;28;20453;-88
2021/03/05 06:06:38;;;;;;;18.97;11.77;;;2.90;99.90;;;;;;4993318;28;20511;-88
2021/03/05 06:09:05;;;;;;;19.07;12.20;;;2.90;99.90;;;;;;4989670;28;20452;-89
2021/03/05 06:11:32;;;;;;;20.33;12.47;;;2.90;99.90;;;;;;4993469;28;20457;-88
2021/03/05 06:14:02;;;;;;;19.07;11.77;;;3.00;99.90;;;;;;4999249;28;20560;-88
2021/03/05 06:16:29;;;;;;;25.90;12.47;;;3.00;99.90;;;;;;4999787;28;20570;-88
2021/03/05 06:18:55;;;;;;;20.30;12.20;;;2.90;99.90;;;;;;4998782;28;20451;-89
2021/03/05 06:21:35;;;;;;;18.17;11.53;;;2.90;99.90;;;;;;4999923;28;20507;-87
2021/03/05 06:24:03;;;;;;;15.60;10.50;;;3.00;99.90;;;;;;4995934;28;20479;-89
2021/03/05 06:26:30;;;;;;;19.37;12.33;;;3.00;99.90;;;;;;4999778;28;20457;-88
2021/03/05 06:29:04;;;;;;;26.00;12.20;;;3.00;99.90;;;;;;4999496;28;20519;-89
2021/03/05 06:31:32;;;;;;;20.50;12.70;;;3.00;99.90;;;;;;4999600;28;20451;-88
2021/03/05 06:34:00;;;;;;;19.20;12.67;;;3.00;99.90;;;;;;4998921;28;20814;-89
2021/03/05 06:36:26;;;;;;;20.00;12.80;;;3.00;99.90;;;;;;4999480;28;20596;-90
2021/03/05 06:38:53;;;;;;;23.00;14.13;;;2.90;99.90;;;;;;4996679;28;20457;-88
2021/03/05 06:41:22;;;;;;;20.43;12.87;;;2.90;99.90;;;;;;5000622;28;20825;-89
2021/03/05 06:43:49;;;;;;;24.73;14.70;;;3.00;99.90;;;;;;5000168;28;20453;-88
2021/03/05 06:46:36;;;;;;;21.00;12.97;;;2.90;99.90;;;;;;5000007;28;20481;-88
2021/03/05 06:49:04;;;;;;;19.20;12.07;;;3.00;99.90;;;;;;4998360;28;20506;-87
2021/03/05 06:51:35;;;;;;;24.47;12.27;;;3.00;99.90;;;;;;4994391;28;20433;-89
2021/03/05 06:54:07;;;;;;;30.33;13.40;;;3.00;99.90;;;;;;4996515;28;20441;-88
2021/03/05 06:56:35;;;;;;;17.43;10.97;;;2.90;99.90;;;;;;4991036;28;20556;-87
2021/03/05 06:59:09;;;;;;;19.60;12.10;;;2.90;99.90;;;;;;4996259;28;20856;-88
2021/03/05 07:01:48;;;;;;;19.37;12.67;;;2.90;99.90;;;;;;4999370;28;20465;-89
2021/03/05 07:04:16;;;;;;;18.00;10.57;;;2.90;99.90;;;;;;4998379;28;20460;-88
2021/03/05 07:06:43;;;;;;;22.10;12.00;;;3.00;99.90;;;;;;4999352;28;20445;-89
2021/03/05 07:09:11;;;;;;;17.47;11.90;;;3.00;99.90;;;;;;4999491;28;20453;-90
2021/03/05 07:11:43;;;;;;;17.87;10.73;;;3.00;99.90;;;;;;4999934;28;20909;-90
2021/03/05 07:14:12;;;;;;;19.20;11.50;;;3.00;99.90;;;;;;4999694;28;20438;-89
2021/03/05 07:16:44;;;;;;;19.77;12.20;;;3.00;99.90;;;;;;4999401;28;20559;-89
2021/03/05 07:19:13;;;;;;;22.40;12.40;;;3.00;99.90;;;;;;4998690;28;20829;-88
2021/03/05 07:21:42;;;;;;;20.93;13.07;;;3.00;99.90;;;;;;4999728;28;20449;-88
2021/03/05 07:24:11;;;;;;;17.47;11.00;;;3.00;99.90;;;;;;4997111;28;20453;-89
2021/03/05 07:26:43;;;;;;;22.03;13.10;;;3.00;99.90;;;;;;4993023;28;20457;-87
2021/03/05 07:29:18;;;;;;;21.03;12.70;;;3.00;99.90;;;;;;4995906;28;20870;-88
2021/03/05 07:31:45;;;;;;;20.73;11.50;;;3.10;99.90;;;;;;4996076;28;20491;-87
2021/03/05 07:34:18;;;;;;;19.67;12.53;;;3.10;99.90;;;;;;4994708;28;20445;-88
2021/03/05 07:36:49;;;;;;;26.30;13.27;;;3.10;99.90;;;;;;4992497;28;20489;-88
2021/03/05 07:39:23;;;;;;;25.47;13.17;;;3.10;99.90;;;;;;4961468;28;20468;-88
2021/03/05 07:41:54;;;;;;;25.77;14.97;;;3.10;99.90;;;;;;4995583;28;20454;-88
2021/03/05 07:44:21;;;;;;;23.10;12.90;;;3.10;99.90;;;;;;4992559;28;20449;-88
2021/03/05 07:46:48;;;;;;;21.10;11.70;;;3.20;99.90;;;;;;4996961;28;20449;-93
2021/03/05 07:49:16;;;;;;;22.77;12.00;;;3.20;99.90;;;;;;4986258;28;20449;-89
2021/03/05 07:51:44;;;;;;;21.43;12.10;;;3.20;99.90;;;;;;4996464;28;20447;-89
2021/03/05 07:54:10;;;;;;;18.60;11.03;;;3.20;99.90;;;;;;4996630;28;20444;-90
2021/03/05 07:56:44;;;;;;;18.50;12.30;;;3.30;99.90;;;;;;4995543;28;20680;-91
2021/03/05 07:59:39;;;;;;;18.50;12.27;;;3.50;99.90;;;;;;4980409;28;20468;-89
2021/03/05 08:02:06;;;;;;;20.60;13.03;;;3.40;99.90;;;;;;4976156;28;20454;-90
2021/03/05 08:05:05;;;;;;;20.47;11.63;;;3.40;99.90;;;;;;4975674;28;20446;-88
2021/03/05 08:07:33;;;;;;;25.33;12.87;;;3.40;99.90;;;;;;4897574;29;20549;-89
2021/03/05 08:10:00;;;;;;;19.97;11.80;;;3.40;99.90;;;;;;4957106;28;20815;-88
2021/03/05 08:12:37;;;;;;;24.33;13.40;;;3.40;99.90;;;;;;4973440;28;20450;-88
2021/03/05 08:15:24;;;;;;;19.57;11.07;;;3.40;99.90;;;;;;4979346;28;20812;-90
2021/03/05 08:17:53;;;;;;;18.73;11.50;;;3.30;99.90;;;;;;4994408;28;20445;-89
2021/03/05 08:20:52;;;;;;;20.10;12.07;;;3.40;99.90;;;;;;4989894;28;20461;-89
2021/03/05 08:23:18;;;;;;;19.13;11.80;;;3.50;99.90;;;;;;4995337;28;20441;-90
2021/03/05 08:25:53;;;;;;;18.10;11.33;;;3.50;99.90;;;;;;4995053;28;20449;-88
2021/03/05 08:28:36;;;;;;;23.40;12.00;;;3.60;99.90;;;;;;4995195;28;20445;-89
2021/03/05 08:31:03;;;;;;;16.90;11.50;;;3.60;99.90;;;;;;4995156;28;20461;-89
2021/03/05 08:33:32;;;;;;;20.03;11.83;;;3.60;99.90;;;;;;4989083;28;20450;-88
2021/03/05 08:36:00;;;;;;;17.50;11.20;;;3.60;99.90;;;;;;4994798;28;20543;-89
2021/03/05 08:38:35;;;;;;;20.47;12.27;;;3.70;99.90;;;;;;4995135;28;20548;-88
2021/03/05 08:41:05;;;;;;;20.17;12.60;;;3.70;99.90;;;;;;4987689;28;20460;-89
2021/03/05 08:43:36;;;;;;;26.63;12.87;;;3.70;99.90;;;;;;4995922;28;20460;-89
2021/03/05 08:46:04;;;;;;;26.63;10.90;;;3.70;99.90;;;;;;4992625;28;20468;-88
2021/03/05 08:48:33;;;;;;;41.17;11.63;;;3.70;99.90;;;;;;4994781;28;20454;-89
2021/03/05 08:51:14;;;;;;;17.50;11.10;;;3.60;99.90;;;;;;4996037;28;20460;-91
2021/03/05 08:53:46;;;;;;;18.00;9.67;;;3.50;99.90;;;;;;4994251;28;21015;-92
2021/03/05 08:56:16;;;;;;;18.27;10.73;;;3.70;99.90;;;;;;4994517;28;20501;-88
2021/03/05 08:58:43;;;;;;;18.77;11.53;;;3.90;99.90;;;;;;4991920;28;20457;-89
2021/03/05 09:01:26;;;;;;;21.60;10.27;;;3.80;99.90;;;;;;4994851;28;20477;-88
2021/03/05 09:03:52;;;;;;;18.73;11.50;;;3.80;99.90;;;;;;4989258;28;20448;-88
2021/03/05 09:06:19;;;;;;;16.63;10.10;;;3.80;99.90;;;;;;4994139;28;20487;-87
2021/03/05 09:08:46;;;;;;;15.17;10.10;;;3.80;99.90;;;;;;4994816;28;20454;-88
2021/03/05 09:11:14;;;;;;;14.30;10.00;;;3.70;99.90;;;;;;4994836;28;20457;-89
2021/03/05 09:13:41;;;;;;;14.23;9.70;;;3.70;99.90;;;;;;4994526;28;20492;-87
2021/03/05 09:16:08;;;;;;;15.33;9.87;;;3.70;99.90;;;;;;4994255;28;20504;-88
2021/03/05 09:18:36;;;;;;;19.10;10.17;;;3.70;99.90;;;;;;4989047;28;20449;-89
2021/03/05 09:21:05;;;;;;;15.90;10.90;;;3.70;99.90;;;;;;4994008;28;20459;-89
2021/03/05 09:23:36;;;;;;;15.50;10.10;;;3.70;99.90;;;;;;4991084;28;20453;-88
2021/03/05 09:26:04;;;;;;;16.03;8.87;;;3.70;99.90;;;;;;4995241;28;20464;-87
2021/03/05 09:28:39;;;;;;;14.77;10.47;;;3.70;99.90;;;;;;4990359;28;20469;-87
2021/03/05 09:31:08;;;;;;;16.63;9.10;;;3.90;99.90;;;;;;4981008;28;20450;-89
2021/03/05 09:33:36;;;;;;;17.53;10.00;;;3.90;99.90;;;;;;4989405;28;20891;-87
2021/03/05 09:36:08;;;;;;;14.87;9.47;;;3.90;99.90;;;;;;4989762;28;20490;-88
2021/03/05 09:38:36;;;;;;;15.53;9.27;;;4.10;99.90;;;;;;4974073;28;20541;-89
2021/03/05 09:41:16;;;;;;;17.00;9.67;;;4.10;99.90;;;;;;4974232;28;20455;-88
2021/03/05 09:43:44;;;;;;;16.10;9.63;;;4.30;99.90;;;;;;4975078;28;20457;-87
2021/03/05 09:46:24;;;;;;;13.80;9.37;;;4.30;99.90;;;;;;4984630;28;20446;-85
2021/03/05 09:48:52;;;;;;;14.50;9.10;;;4.40;99.90;;;;;;4972133;28;20458;-85
2021/03/05 09:51:20;;;;;;;14.23;8.00;;;4.40;99.90;;;;;;4989153;28;20855;-85
2021/03/05 09:53:52;;;;;;;14.90;8.17;;;4.40;99.90;;;;;;4989273;28;20457;-84
2021/03/05 09:56:20;;;;;;;13.63;8.27;;;4.40;99.90;;;;;;4982448;28;21004;-84
2021/03/05 09:58:57;;;;;;;16.47;9.93;;;4.30;99.90;;;;;;4993105;28;20497;-83
2021/03/05 10:01:26;;;;;;;21.70;8.97;;;4.30;99.90;;;;;;4975877;28;20832;-86
2021/03/05 10:03:54;;;;;;;13.23;8.77;;;4.40;99.90;;;;;;4990821;28;20960;-85
2021/03/05 10:06:20;;;;;;;16.40;9.40;;;4.40;99.90;;;;;;4992803;28;20449;-85
2021/03/05 10:08:47;;;;;;;38.17;9.20;;;4.40;99.90;;;;;;4992988;28;20544;-86
2021/03/05 10:11:15;;;;;;;20.00;8.93;;;4.40;99.90;;;;;;4985516;28;20464;-84
2021/03/05 10:13:53;;;;;;;13.83;9.00;;;4.50;99.90;;;;;;4992954;28;20937;-85
2021/03/05 10:16:21;;;;;;;13.90;8.60;;;4.50;99.90;;;;;;4993237;28;20931;-86
2021/03/05 10:18:49;;;;;;;13.27;8.83;;;4.50;99.90;;;;;;4988172;28;20975;-84
2021/03/05 10:21:17;;;;;;;14.33;8.57;;;4.50;99.90;;;;;;4993731;28;20453;-86
2021/03/05 10:23:44;;;;;;;13.83;9.40;;;4.50;99.90;;;;;;4993191;28;20445;-86
2021/03/05 10:26:15;;;;;;;16.63;8.57;;;4.40;99.90;;;;;;4993209;28;20461;-84
2021/03/05 10:28:43;;;;;;;14.60;9.30;;;4.50;99.90;;;;;;4993099;28;20468;-87
2021/03/05 10:31:11;;;;;;;13.13;8.80;;;4.60;99.90;;;;;;4990102;28;20954;-84
2021/03/05 10:33:39;;;;;;;12.57;8.53;;;4.80;99.90;;;;;;4986129;28;20458;-86
2021/03/05 10:36:07;;;;;;;15.17;8.07;;;4.80;99.90;;;;;;4993199;28;20563;-87
2021/03/05 10:38:34;;;;;;;12.30;8.33;;;4.80;99.90;;;;;;4993189;28;20445;-86
2021/03/05 10:41:00;;;;;;;13.80;7.80;;;4.60;99.90;;;;;;4993197;28;20452;-86
2021/03/05 10:43:28;;;;;;;11.40;8.30;;;4.60;99.90;;;;;;4993036;28;20457;-86
2021/03/05 10:45:54;;;;;;;14.97;9.73;;;4.70;99.90;;;;;;4992807;28;20795;-88
2021/03/05 10:48:20;;;;;;;12.67;8.83;;;4.80;99.90;;;;;;4991615;28;20471;-87
2021/03/05 10:50:47;;;;;;;11.50;8.50;;;4.70;99.90;;;;;;4992941;28;20453;-89
2021/03/05 10:53:13;;;;;;;13.57;8.07;;;4.70;99.90;;;;;;4993042;28;20453;-87
2021/03/05 10:55:40;;;;;;;12.83;8.30;;;4.80;99.90;;;;;;4992933;28;20493;-87
2021/03/05 10:58:07;;;;;;;10.80;7.70;;;4.60;99.90;;;;;;4993196;28;20457;-88
2021/03/05 11:00:34;;;;;;;13.97;8.13;;;4.80;99.90;;;;;;4997197;28;20451;-86
2021/03/05 11:03:01;;;;;;;20.20;8.50;;;4.80;99.90;;;;;;4997673;28;20457;-89
2021/03/05 11:05:27;;;;;;;11.67;7.80;;;4.70;99.90;;;;;;4991454;28;20503;-87
2021/03/05 11:07:53;;;;;;;12.20;8.20;;;4.70;99.90;;;;;;4996798;28;20445;-83
2021/03/05 11:10:20;;;;;;;14.53;8.67;;;4.70;99.90;;;;;;4996432;28;20456;-86
2021/03/05 11:12:47;;;;;;;10.67;7.47;;;4.70;99.90;;;;;;4996237;28;20449;-85
2021/03/05 11:15:15;;;;;;;11.33;8.30;;;4.60;99.90;;;;;;4996307;28;20456;-85
2021/03/05 11:17:43;;;;;;;14.73;8.50;;;4.50;99.90;;;;;;4995696;28;20468;-87
2021/03/05 11:20:10;;;;;;;13.97;9.00;;;4.50;99.90;;;;;;4996922;28;20456;-88
2021/03/05 11:22:37;;;;;;;14.90;9.87;;;4.60;99.90;;;;;;4996365;28;20456;-89
2021/03/05 11:25:04;;;;;;;10.93;7.83;;;4.60;99.90;;;;;;4995924;28;20479;-87
2021/03/05 11:27:34;;;;;;;15.03;10.23;;;4.70;99.90;;;;;;4991375;28;20461;-88
2021/03/05 11:30:00;;;;;;;14.47;9.07;;;4.70;99.90;;;;;;4981967;28;20458;-89
2021/03/05 11:32:26;;;;;;;16.97;10.80;;;4.70;99.90;;;;;;4976370;28;20542;-88
2021/03/05 11:34:54;;;;;;;15.90;10.23;;;4.60;99.90;;;;;;4996941;28;20449;-88
2021/03/05 11:37:20;;;;;;;14.67;9.70;;;4.50;99.90;;;;;;4996031;28;20503;-89
2021/03/05 11:39:46;;;;;;;17.13;10.90;;;4.60;99.90;;;;;;4996472;28;20449;-88
2021/03/05 11:42:12;;;;;;;33.93;13.13;;;4.60;99.90;;;;;;4996145;28;20455;-86
2021/03/05 11:44:39;;;;;;;16.70;9.73;;;4.60;99.90;;;;;;4997019;28;20548;-87
2021/03/05 11:47:05;;;;;;;15.27;10.03;;;4.40;99.90;;;;;;4976838;28;20453;-88
2021/03/05 11:49:31;;;;;;;16.57;12.23;;;4.40;99.90;;;;;;4973161;28;20988;-88
2021/03/05 11:51:59;;;;;;;18.27;10.63;;;4.40;99.90;;;;;;4984852;28;20450;-87
2021/03/05 11:54:25;;;;;;;13.57;9.77;;;4.40;99.90;;;;;;4989259;28;20930;-87
2021/03/05 11:56:51;;;;;;;16.77;10.90;;;4.40;99.90;;;;;;4971930;28;21080;-88
2021/03/05 11:59:18;;;;;;;19.23;10.67;;;4.50;99.90;;;;;;4973627;28;20445;-88
2021/03/05 12:01:44;;;;;;;16.23;11.63;;;4.50;99.90;;;;;;4976182;28;20447;-87
2021/03/05 12:04:11;;;;;;;16.23;9.40;;;4.50;99.90;;;;;;4975210;28;20509;-87
2021/03/05 12:06:39;;;;;;;13.80;9.00;;;4.50;99.90;;;;;;4980939;28;20478;-87
2021/03/05 12:09:07;;;;;;;72.50;38.80;;;4.40;99.90;;;;;;4987191;28;20449;-87
2021/03/05 12:11:34;;;;;;;17.80;10.93;;;4.50;99.90;;;;;;4974702;28;20466;-87
2021/03/05 12:14:00;;;;;;;14.70;10.37;;;4.50;99.90;;;;;;4977435;28;20916;-87
2021/03/05 12:16:27;;;;;;;17.00;9.30;;;4.50;99.90;;;;;;4995376;28;20497;-87
2021/03/05 12:18:53;;;;;;;15.23;9.70;;;4.40;99.90;;;;;;4986803;28;20832;-87
2021/03/05 12:21:20;;;;;;;15.90;10.70;;;4.50;99.90;;;;;;4997688;28;20449;-86
2021/03/05 12:23:46;;;;;;;16.90;10.37;;;4.50;99.90;;;;;;4997383;28;20858;-87
2021/03/05 12:26:13;;;;;;;14.63;10.27;;;4.40;99.90;;;;;;4993071;28;20461;-87
2021/03/05 12:28:40;;;;;;;18.37;11.90;;;4.30;99.90;;;;;;4975336;28;20990;-87
2021/03/05 12:31:06;;;;;;;16.60;10.47;;;4.20;99.90;;;;;;4979155;28;20477;-85
2021/03/05 12:33:32;;;;;;;16.90;9.80;;;4.20;99.90;;;;;;4975257;28;20462;-84
2021/03/05 12:35:59;;;;;;;17.50;9.93;;;4.20;99.90;;;;;;4975469;28;20987;-84
2021/03/05 12:38:26;;;;;;;16.80;10.40;;;4.10;99.90;;;;;;4975224;28;20459;-86
2021/03/05 12:40:52;;;;;;;15.63;9.97;;;4.00;99.90;;;;;;4975398;28;20513;-85
2021/03/05 12:43:19;;;;;;;14.93;10.00;;;4.10;99.90;;;;;;4975180;28;20454;-86
2021/03/05 12:45:47;;;;;;;17.80;10.73;;;4.10;99.90;;;;;;4975239;28;20450;-86